Time;durP1;ratioP1;P1;durP2;ratioP2;P2;SDS_P1;SDS_P2;PMS_P1;PMS_P2;Temp;Humidity;BMP_temperature;BMP_pressure;BME280_temperature;BME280_humidity;BME280_pressure;Samples;Min_cycle;Max_cycle;Signal;HPM_P1;HPM_P2
2023/06/27 00:01:47;;;;;;;2.42;1.95;;;18.70;96.70;;;;;;5025525;28;20196;-42
2023/06/27 00:04:16;;;;;;;4.25;1.73;;;18.70;96.70;;;;;;5024897;28;20534;-42
2023/06/27 00:06:41;;;;;;;3.60;1.67;;;18.60;96.80;;;;;;5021762;28;20510;-42
2023/06/27 00:09:09;;;;;;;2.13;1.50;;;18.60;96.90;;;;;;5025076;28;20017;-42
2023/06/27 00:11:36;;;;;;;2.63;2.10;;;18.50;97.00;;;;;;5025139;28;20145;-42
2023/06/27 00:14:04;;;;;;;3.95;1.88;;;18.50;97.20;;;;;;5026317;28;20030;-42
2023/06/27 00:16:36;;;;;;;3.65;2.08;;;18.60;97.30;;;;;;5026094;28;20236;-42
2023/06/27 00:19:03;;;;;;;2.07;1.80;;;18.60;97.30;;;;;;5025878;28;20032;-42
2023/06/27 00:21:32;;;;;;;3.65;1.88;;;18.60;97.30;;;;;;5024618;28;20296;-42
2023/06/27 00:23:59;;;;;;;2.90;1.80;;;18.60;97.40;;;;;;5025710;28;20365;-42
2023/06/27 00:26:25;;;;;;;4.25;2.00;;;18.60;97.50;;;;;;5025179;28;20798;-42
2023/06/27 00:28:51;;;;;;;3.58;2.22;;;18.70;97.60;;;;;;5025173;28;20183;-43
2023/06/27 00:31:17;;;;;;;4.22;2.25;;;18.70;97.60;;;;;;5024032;28;20444;-42
2023/06/27 00:33:42;;;;;;;2.85;1.90;;;18.70;97.60;;;;;;5024745;28;20048;-43
2023/06/27 00:36:09;;;;;;;6.95;2.30;;;18.80;97.70;;;;;;5025112;28;20037;-43
2023/06/27 00:38:35;;;;;;;1.83;1.60;;;18.80;97.70;;;;;;5025865;28;20024;-42
2023/06/27 00:41:01;;;;;;;2.05;1.85;;;18.80;97.70;;;;;;5024417;28;20499;-42
2023/06/27 00:43:29;;;;;;;2.67;1.88;;;18.80;97.70;;;;;;5024728;28;20033;-42
2023/06/27 00:45:56;;;;;;;3.17;2.03;;;18.80;97.80;;;;;;5025914;28;20029;-42
2023/06/27 00:48:22;;;;;;;4.05;2.10;;;18.80;97.90;;;;;;5024940;28;20069;-42
2023/06/27 00:50:51;;;;;;;3.17;2.15;;;18.80;98.00;;;;;;5023867;28;20033;-42
2023/06/27 00:53:17;;;;;;;2.72;2.00;;;18.80;98.00;;;;;;5024616;28;20033;-42
2023/06/27 00:55:43;;;;;;;1.95;1.58;;;18.80;98.00;;;;;;5023993;28;20037;-43
2023/06/27 00:58:10;;;;;;;3.22;1.98;;;18.70;98.00;;;;;;5024418;28;20026;-42
2023/06/27 01:00:36;;;;;;;3.17;1.98;;;18.80;98.10;;;;;;5023598;28;20033;-43
2023/06/27 01:03:05;;;;;;;2.45;1.95;;;18.70;98.20;;;;;;5025196;28;20029;-42
2023/06/27 01:05:31;;;;;;;4.47;2.10;;;18.70;98.30;;;;;;5024543;28;20127;-43
2023/06/27 01:08:19;;;;;;;2.10;1.70;;;18.70;98.30;;;;;;5024633;28;20059;-42
2023/06/27 01:10:55;;;;;;;3.05;2.00;;;18.70;98.40;;;;;;5024678;28;20467;-42
2023/06/27 01:13:29;;;;;;;3.78;2.50;;;18.70;98.40;;;;;;5025249;28;20473;-43
2023/06/27 01:15:56;;;;;;;4.35;2.70;;;18.70;98.60;;;;;;5024366;28;20026;-43
2023/06/27 01:18:25;;;;;;;2.78;2.50;;;18.70;98.60;;;;;;5025094;28;20033;-42
2023/06/27 01:20:52;;;;;;;2.45;2.15;;;18.70;98.70;;;;;;5022738;28;20033;-42
2023/06/27 01:23:33;;;;;;;3.08;2.05;;;18.70;98.80;;;;;;5022949;28;20037;-42
2023/06/27 01:26:04;;;;;;;2.55;2.35;;;18.70;98.80;;;;;;5024271;28;20037;-42
2023/06/27 01:28:30;;;;;;;3.38;2.20;;;18.70;98.90;;;;;;5025185;28;20459;-42
2023/06/27 01:30:56;;;;;;;4.00;2.45;;;18.60;99.00;;;;;;5022916;28;20531;-43
2023/06/27 01:33:32;;;;;;;2.55;2.30;;;18.60;99.20;;;;;;5024529;28;20036;-42
2023/06/27 01:36:19;;;;;;;4.75;2.58;;;18.50;99.60;;;;;;5022941;28;20028;-41
2023/06/27 01:38:50;;;;;;;4.28;2.75;;;18.50;99.40;;;;;;5022313;28;20481;-42
2023/06/27 01:41:20;;;;;;;2.83;2.53;;;18.40;99.50;;;;;;5023033;28;20052;-42
2023/06/27 01:43:47;;;;;;;4.30;2.47;;;18.40;99.60;;;;;;5023609;28;20025;-42
2023/06/27 01:46:13;;;;;;;3.00;2.70;;;18.40;99.70;;;;;;5024605;28;20030;-43
2023/06/27 01:48:45;;;;;;;5.53;2.60;;;18.30;99.80;;;;;;5024420;28;20055;-42
2023/06/27 01:51:10;;;;;;;3.03;2.70;;;18.30;99.90;;;;;;5022303;28;20493;-42
2023/06/27 01:53:36;;;;;;;4.13;2.30;;;18.30;99.90;;;;;;5024441;28;20123;-42
2023/06/27 01:56:03;;;;;;;3.22;2.55;;;18.30;99.90;;;;;;5023521;28;20045;-42
2023/06/27 01:58:30;;;;;;;3.70;2.70;;;18.30;99.90;;;;;;5023465;28;20091;-42
2023/06/27 02:00:55;;;;;;;3.67;2.63;;;18.30;99.90;;;;;;5023256;28;20029;-42
2023/06/27 02:03:21;;;;;;;4.45;2.55;;;18.30;99.90;;;;;;5024049;28;20078;-42
2023/06/27 02:05:49;;;;;;;4.35;2.92;;;18.30;99.90;;;;;;5023703;28;20080;-42
2023/06/27 02:08:15;;;;;;;3.33;2.70;;;18.30;99.90;;;;;;5020425;28;20507;-42
2023/06/27 02:10:41;;;;;;;3.60;2.55;;;18.30;99.90;;;;;;5023734;28;20910;-42
2023/06/27 02:13:06;;;;;;;3.35;2.50;;;18.30;99.90;;;;;;5023794;28;20422;-42
2023/06/27 02:15:32;;;;;;;4.70;3.22;;;18.30;99.90;;;;;;5024353;28;20083;-42
2023/06/27 02:17:58;;;;;;;3.40;3.10;;;18.30;99.90;;;;;;5023379;28;20034;-42
2023/06/27 02:20:24;;;;;;;3.03;2.80;;;18.30;99.90;;;;;;5007519;28;20442;-42
2023/06/27 02:22:49;;;;;;;3.55;2.53;;;18.30;99.90;;;;;;5023874;28;20468;-42
2023/06/27 02:25:15;;;;;;;4.22;3.00;;;18.30;99.90;;;;;;5023185;28;20350;-42
2023/06/27 02:27:41;;;;;;;6.00;3.03;;;18.30;99.90;;;;;;5023518;28;20041;-42
2023/06/27 02:30:07;;;;;;;3.33;2.50;;;18.30;99.90;;;;;;5022630;28;20036;-42
2023/06/27 02:32:32;;;;;;;3.78;2.63;;;18.20;99.90;;;;;;5024533;28;20033;-42
2023/06/27 02:34:58;;;;;;;4.05;2.63;;;18.20;99.90;;;;;;5027919;28;20032;-42
2023/06/27 02:37:23;;;;;;;3.30;2.65;;;18.10;99.90;;;;;;5028038;28;20035;-43
2023/06/27 02:39:50;;;;;;;5.80;3.28;;;18.10;99.90;;;;;;5027696;28;20022;-42
2023/06/27 02:42:16;;;;;;;3.58;2.47;;;18.00;99.90;;;;;;5027108;28;20032;-42
2023/06/27 02:44:41;;;;;;;5.60;3.38;;;18.00;99.90;;;;;;5028177;28;20021;-42
2023/06/27 02:47:07;;;;;;;3.58;2.55;;;17.90;99.90;;;;;;5026575;28;20064;-42
2023/06/27 02:49:33;;;;;;;9.60;3.90;;;17.90;99.90;;;;;;5027026;28;20057;-42
2023/06/27 02:51:58;;;;;;;6.72;3.08;;;17.80;99.90;;;;;;5026723;28;20022;-43
2023/06/27 02:54:24;;;;;;;6.28;3.22;;;17.80;99.90;;;;;;5026705;28;20029;-43
2023/06/27 02:56:49;;;;;;;6.30;2.85;;;17.80;99.90;;;;;;5027088;28;20061;-43
2023/06/27 02:59:15;;;;;;;3.63;2.70;;;17.80;99.90;;;;;;5027002;28;20128;-42
2023/06/27 03:01:40;;;;;;;4.13;3.00;;;17.80;99.90;;;;;;5026566;28;20044;-43
2023/06/27 03:04:09;;;;;;;6.47;3.05;;;17.70;99.90;;;;;;5026782;28;20060;-42
2023/06/27 03:06:35;;;;;;;5.00;2.80;;;17.70;99.90;;;;;;5026828;28;20549;-43
2023/06/27 03:09:00;;;;;;;3.25;2.70;;;17.70;99.90;;;;;;5026975;28;20124;-43
2023/06/27 03:11:26;;;;;;;5.15;3.25;;;17.60;99.90;;;;;;5026559;28;20172;-41
2023/06/27 03:13:51;;;;;;;4.75;2.90;;;17.60;99.90;;;;;;5026814;28;20055;-41
2023/06/27 03:16:17;;;;;;;11.02;4.55;;;17.60;99.90;;;;;;5026254;28;20026;-41
2023/06/27 03:18:43;;;;;;;5.15;3.20;;;17.60;99.90;;;;;;5026175;28;20108;-41
2023/06/27 03:21:08;;;;;;;10.02;3.38;;;17.60;99.90;;;;;;5026096;28;20041;-42
2023/06/27 03:23:34;;;;;;;3.63;3.22;;;17.60;99.90;;;;;;5025254;28;20044;-41
2023/06/27 03:25:59;;;;;;;3.92;3.03;;;17.50;99.90;;;;;;5027024;28;20785;-42
2023/06/27 03:28:25;;;;;;;5.07;2.95;;;17.50;99.90;;;;;;5025729;28;20041;-42
2023/06/27 03:30:51;;;;;;;3.65;3.20;;;17.50;99.90;;;;;;5024652;28;20037;-42
2023/06/27 03:33:16;;;;;;;6.55;3.22;;;17.50;99.90;;;;;;5027068;28;20077;-42
2023/06/27 03:35:42;;;;;;;5.60;3.38;;;17.40;99.90;;;;;;5026096;28;20075;-42
2023/06/27 03:38:08;;;;;;;3.70;2.85;;;17.40;99.90;;;;;;5027068;28;20370;-41
2023/06/27 03:40:33;;;;;;;3.38;3.00;;;17.40;99.90;;;;;;5025745;28;20025;-41
2023/06/27 03:42:59;;;;;;;4.85;3.17;;;17.40;99.90;;;;;;5025100;28;20033;-42
2023/06/27 03:45:24;;;;;;;7.18;3.25;;;17.50;99.90;;;;;;5025677;28;20477;-42
2023/06/27 03:47:50;;;;;;;5.53;3.08;;;17.50;99.90;;;;;;5025796;28;20493;-42
2023/06/27 03:50:16;;;;;;;5.63;3.30;;;17.50;99.90;;;;;;5025761;28;20033;-42
2023/06/27 03:52:41;;;;;;;5.07;2.83;;;17.50;99.90;;;;;;5025818;28;20374;-41
2023/06/27 03:55:07;;;;;;;6.38;2.92;;;17.50;99.90;;;;;;5025848;28;20377;-42
2023/06/27 03:57:33;;;;;;;4.95;2.90;;;17.60;99.90;;;;;;5025585;28;20369;-42
2023/06/27 03:59:59;;;;;;;4.65;2.60;;;17.60;99.90;;;;;;5026303;28;20029;-42
2023/06/27 04:02:24;;;;;;;4.85;2.80;;;17.70;99.90;;;;;;5025012;28;20029;-43
2023/06/27 04:04:50;;;;;;;4.28;2.88;;;17.70;99.90;;;;;;5025345;28;20900;-42
2023/06/27 04:07:15;;;;;;;4.50;2.80;;;17.70;99.90;;;;;;5025424;28;20047;-42
2023/06/27 04:09:44;;;;;;;3.40;2.42;;;17.80;99.90;;;;;;5026134;28;20112;-43
2023/06/27 04:12:09;;;;;;;5.45;3.00;;;17.80;99.90;;;;;;5024321;28;20494;-42
2023/06/27 04:14:35;;;;;;;3.50;2.83;;;17.90;99.90;;;;;;5026188;28;20112;-42
2023/06/27 04:17:01;;;;;;;2.25;2.03;;;17.90;99.90;;;;;;5024680;28;20033;-42
2023/06/27 04:19:26;;;;;;;4.32;2.58;;;17.90;99.90;;;;;;5023264;28;20124;-41
2023/06/27 04:21:52;;;;;;;5.68;2.58;;;17.90;99.90;;;;;;5025138;28;20032;-42
2023/06/27 04:24:17;;;;;;;4.78;2.55;;;17.90;99.90;;;;;;5025755;28;20029;-42
2023/06/27 04:26:43;;;;;;;5.03;2.95;;;18.00;99.90;;;;;;5024950;28;20064;-41
2023/06/27 04:29:09;;;;;;;4.75;2.60;;;18.00;99.90;;;;;;5025609;28;20087;-41
2023/06/27 04:31:35;;;;;;;4.72;2.50;;;18.00;99.90;;;;;;5024831;28;20033;-41
2023/06/27 04:34:00;;;;;;;6.15;2.63;;;18.00;99.90;;;;;;5025015;28;20021;-41
2023/06/27 04:36:27;;;;;;;5.55;2.90;;;18.00;99.90;;;;;;5025392;28;20025;-42
2023/06/27 04:38:52;;;;;;;6.13;3.03;;;18.10;99.90;;;;;;5013783;28;20025;-42
2023/06/27 04:41:18;;;;;;;7.35;3.17;;;18.10;99.90;;;;;;5017255;28;20022;-41
2023/06/27 04:43:43;;;;;;;4.53;2.50;;;18.10;99.90;;;;;;5025251;28;20033;-41
2023/06/27 04:46:09;;;;;;;3.72;2.38;;;18.10;99.90;;;;;;5024194;28;20682;-41
2023/06/27 04:48:35;;;;;;;4.93;2.33;;;18.20;99.90;;;;;;5021687;28;20044;-43
2023/06/27 04:51:03;;;;;;;2.90;2.60;;;18.20;99.90;;;;;;5024413;28;20053;-42
2023/06/27 04:53:33;;;;;;;4.60;2.97;;;18.10;99.90;;;;;;5022497;28;20037;-41
2023/06/27 04:55:58;;;;;;;5.18;2.92;;;18.10;99.90;;;;;;5013380;28;20053;-42
2023/06/27 04:58:24;;;;;;;4.63;2.75;;;18.10;99.90;;;;;;5024954;28;20044;-43
2023/06/27 05:00:51;;;;;;;4.03;2.78;;;18.10;99.90;;;;;;5021917;28;20379;-43
2023/06/27 05:03:23;;;;;;;4.07;2.28;;;18.10;99.90;;;;;;5024645;28;20036;-42
2023/06/27 05:05:49;;;;;;;5.78;2.88;;;18.20;99.90;;;;;;5025788;28;20104;-43
2023/06/27 05:08:14;;;;;;;5.30;2.65;;;18.20;99.90;;;;;;5024450;28;20029;-42
2023/06/27 05:10:40;;;;;;;6.00;2.67;;;18.20;99.90;;;;;;5024944;28;20460;-42
2023/06/27 05:13:06;;;;;;;6.72;2.80;;;18.10;99.90;;;;;;5024945;28;20026;-42
2023/06/27 05:15:31;;;;;;;7.60;2.70;;;18.20;99.90;;;;;;5024680;28;20034;-42
2023/06/27 05:18:06;;;;;;;5.07;2.53;;;18.20;99.90;;;;;;5024519;28;20523;-43
2023/06/27 05:20:31;;;;;;;3.92;2.15;;;18.30;99.90;;;;;;5023992;28;20076;-42
2023/06/27 05:22:57;;;;;;;5.65;2.70;;;18.30;99.90;;;;;;5020081;28;20033;-42
2023/06/27 05:25:22;;;;;;;7.47;2.83;;;18.30;99.90;;;;;;5024615;28;20060;-42
2023/06/27 05:27:48;;;;;;;6.57;2.78;;;18.30;99.90;;;;;;5024147;28;20116;-43
2023/06/27 05:30:14;;;;;;;6.43;3.00;;;18.30;99.90;;;;;;5022558;28;20036;-42
2023/06/27 05:32:40;;;;;;;6.20;2.85;;;18.40;99.90;;;;;;5024652;28;20030;-42
2023/06/27 05:35:06;;;;;;;4.97;2.45;;;18.40;99.90;;;;;;5022960;28;20417;-42
2023/06/27 05:37:40;;;;;;;5.20;2.67;;;18.40;99.90;;;;;;5023185;28;20029;-42
2023/06/27 05:40:08;;;;;;;3.80;2.58;;;18.40;99.90;;;;;;5024311;28;20021;-42
2023/06/27 05:42:33;;;;;;;5.60;3.03;;;18.40;99.90;;;;;;5023939;28;20167;-42
2023/06/27 05:44:59;;;;;;;9.23;2.85;;;18.40;99.90;;;;;;5024161;28;20148;-42
2023/06/27 05:47:24;;;;;;;5.03;3.05;;;18.40;99.90;;;;;;5023971;28;20219;-42
2023/06/27 05:49:50;;;;;;;5.20;2.28;;;18.50;99.90;;;;;;5023638;28;20103;-42
2023/06/27 05:52:15;;;;;;;6.55;3.10;;;18.50;99.90;;;;;;5023977;28;20388;-41
2023/06/27 05:54:44;;;;;;;8.70;2.78;;;18.50;99.90;;;;;;5023599;28;20022;-42
2023/06/27 05:57:10;;;;;;;5.85;2.55;;;18.60;99.90;;;;;;5021905;28;20045;-42
2023/06/27 05:59:38;;;;;;;6.75;2.88;;;18.60;99.90;;;;;;5023821;28;20381;-41
2023/06/27 06:02:04;;;;;;;6.07;2.70;;;18.60;99.90;;;;;;5021781;28;20018;-42
2023/06/27 06:04:30;;;;;;;6.47;3.05;;;18.60;99.90;;;;;;5021288;28;20083;-43
2023/06/27 06:06:56;;;;;;;6.53;2.83;;;18.60;99.90;;;;;;5022934;28;20083;-43
2023/06/27 06:09:22;;;;;;;6.85;2.90;;;18.60;99.90;;;;;;5022235;28;20052;-42
2023/06/27 06:11:47;;;;;;;7.25;2.55;;;18.60;99.90;;;;;;5022638;28;20476;-42
2023/06/27 06:14:13;;;;;;;6.75;2.70;;;18.60;99.90;;;;;;5023277;28;20122;-42
2023/06/27 06:16:38;;;;;;;5.88;2.97;;;18.60;99.90;;;;;;5021627;28;20022;-41
2023/06/27 06:19:04;;;;;;;7.10;3.38;;;18.60;99.90;;;;;;5022770;28;20021;-42
2023/06/27 06:21:31;;;;;;;7.85;2.92;;;18.60;99.90;;;;;;5021253;28;20077;-42
2023/06/27 06:24:03;;;;;;;7.40;3.00;;;18.60;99.90;;;;;;5022248;28;20026;-42
2023/06/27 06:26:29;;;;;;;10.18;3.25;;;18.60;99.90;;;;;;5021092;28;20071;-41
2023/06/27 06:28:54;;;;;;;5.00;2.80;;;18.60;99.90;;;;;;5023324;28;20564;-41
2023/06/27 06:31:21;;;;;;;9.55;3.47;;;18.70;99.90;;;;;;5020782;28;20033;-42
2023/06/27 06:33:48;;;;;;;9.93;3.63;;;18.70;99.90;;;;;;5023266;28;20036;-42
2023/06/27 06:36:14;;;;;;;7.07;3.50;;;18.70;99.90;;;;;;5022569;28;20056;-42
2023/06/27 06:38:43;;;;;;;7.38;3.55;;;18.80;99.90;;;;;;5020019;28;20465;-42
2023/06/27 06:41:08;;;;;;;5.03;3.15;;;18.90;99.90;;;;;;5021849;28;20037;-42
2023/06/27 06:43:34;;;;;;;6.93;2.78;;;18.90;99.90;;;;;;5021974;28;20497;-41
2023/06/27 06:46:00;;;;;;;7.68;3.20;;;19.00;99.90;;;;;;5022873;28;20029;-43
2023/06/27 06:48:25;;;;;;;7.07;3.20;;;19.10;99.90;;;;;;5021564;28;20037;-42
2023/06/27 06:50:52;;;;;;;7.15;2.83;;;19.10;99.90;;;;;;5009802;28;20072;-43
2023/06/27 06:53:19;;;;;;;6.38;3.03;;;19.20;99.90;;;;;;5023152;28;20184;-43
2023/06/27 06:55:47;;;;;;;7.75;2.90;;;19.20;99.90;;;;;;5023117;28;20048;-43
2023/06/27 06:58:22;;;;;;;5.10;2.45;;;19.20;99.90;;;;;;5023723;28;20072;-42
2023/06/27 07:00:51;;;;;;;6.05;2.85;;;19.30;99.90;;;;;;5021751;28;20083;-43
2023/06/27 07:03:16;;;;;;;3.65;2.08;;;19.30;99.90;;;;;;5017359;28;20034;-42
2023/06/27 07:05:42;;;;;;;5.57;1.92;;;19.40;99.90;;;;;;5022920;28;20746;-42
2023/06/27 07:08:08;;;;;;;6.18;2.15;;;19.40;99.90;;;;;;5022171;28;20131;-42
2023/06/27 07:10:34;;;;;;;5.07;1.90;;;19.40;99.90;;;;;;5023267;28;20021;-43
2023/06/27 07:13:01;;;;;;;3.60;1.58;;;19.40;99.90;;;;;;5022451;28;20029;-42
2023/06/27 07:15:32;;;;;;;3.78;1.85;;;19.50;99.90;;;;;;5022547;28;20441;-42
2023/06/27 07:18:04;;;;;;;3.40;1.58;;;19.50;99.90;;;;;;5023265;28;20025;-42
2023/06/27 07:20:29;;;;;;;4.70;2.10;;;19.60;99.90;;;;;;5016824;28;20038;-42
2023/06/27 07:22:55;;;;;;;5.43;2.38;;;19.60;99.90;;;;;;5025524;28;20039;-42
2023/06/27 07:25:21;;;;;;;7.35;3.13;;;19.60;99.90;;;;;;5024960;28;20040;-42
2023/06/27 07:27:46;;;;;;;6.22;2.10;;;19.50;99.90;;;;;;5025760;28;20477;-42
2023/06/27 07:30:15;;;;;;;5.63;2.00;;;19.60;99.90;;;;;;5025808;28;20030;-43
2023/06/27 07:32:41;;;;;;;3.33;1.80;;;19.70;99.90;;;;;;5026389;28;20021;-43
2023/06/27 07:35:07;;;;;;;8.27;2.40;;;19.80;99.90;;;;;;5025708;28;20277;-43
2023/06/27 07:37:33;;;;;;;3.65;1.70;;;19.90;99.90;;;;;;5025396;28;20381;-43
2023/06/27 07:39:58;;;;;;;4.28;1.63;;;20.10;99.90;;;;;;5026572;28;20556;-42
2023/06/27 07:42:25;;;;;;;3.13;1.63;;;20.20;99.90;;;;;;5026043;28;20025;-42
2023/06/27 07:44:51;;;;;;;2.90;1.40;;;20.30;99.90;;;;;;5025664;28;20037;-42
2023/06/27 07:47:23;;;;;;;3.17;1.50;;;20.40;99.90;;;;;;5025776;28;20038;-43
2023/06/27 07:49:48;;;;;;;2.20;1.20;;;20.50;99.90;;;;;;5023864;28;20029;-42
2023/06/27 07:52:14;;;;;;;5.05;1.60;;;20.60;99.60;;;;;;5026174;28;20025;-43
2023/06/27 07:54:39;;;;;;;3.33;1.23;;;20.60;98.80;;;;;;5025728;28;20026;-43
2023/06/27 07:57:06;;;;;;;3.50;1.38;;;20.70;98.60;;;;;;5025295;28;20132;-42
2023/06/27 07:59:32;;;;;;;3.10;1.40;;;20.70;97.80;;;;;;5021453;28;20060;-42
2023/06/27 08:01:58;;;;;;;3.63;1.65;;;20.80;96.80;;;;;;5019498;28;20540;-43
2023/06/27 08:04:24;;;;;;;5.40;1.25;;;20.90;97.20;;;;;;5021953;28;20515;-41
2023/06/27 08:06:50;;;;;;;3.22;1.30;;;20.90;97.10;;;;;;5024980;28;20056;-42
2023/06/27 08:09:15;;;;;;;4.82;0.90;;;21.00;97.20;;;;;;5025642;28;20029;-42
2023/06/27 08:11:41;;;;;;;3.58;1.00;;;21.00;97.40;;;;;;5023384;28;20880;-41
2023/06/27 08:14:07;;;;;;;2.25;1.10;;;21.00;97.00;;;;;;5022348;28;20821;-42
2023/06/27 08:16:35;;;;;;;3.17;1.15;;;21.00;97.10;;;;;;5025894;28;20030;-42
2023/06/27 08:19:04;;;;;;;4.72;1.95;;;21.00;96.80;;;;;;5022601;28;20829;-43
2023/06/27 08:21:29;;;;;;;3.65;1.35;;;21.00;96.60;;;;;;5026580;28;20030;-43
2023/06/27 08:23:55;;;;;;;2.88;1.27;;;21.00;96.70;;;;;;5024651;28;20027;-42
2023/06/27 08:26:21;;;;;;;3.40;1.45;;;21.20;96.70;;;;;;5025661;28;20064;-43
2023/06/27 08:28:46;;;;;;;2.05;1.33;;;21.40;96.70;;;;;;5024881;28;20060;-43
2023/06/27 08:31:12;;;;;;;3.97;1.30;;;21.60;96.60;;;;;;5023712;28;20040;-43
2023/06/27 08:33:39;;;;;;;3.67;1.27;;;21.70;96.50;;;;;;5023363;28;20500;-43
2023/06/27 08:36:07;;;;;;;2.67;1.40;;;21.80;96.30;;;;;;5025805;28;20014;-43
2023/06/27 08:38:33;;;;;;;3.65;1.42;;;21.90;95.80;;;;;;5024218;28;20072;-43
2023/06/27 08:41:01;;;;;;;4.70;1.20;;;22.00;95.80;;;;;;5034541;28;20397;-43
2023/06/27 08:43:26;;;;;;;2.70;1.20;;;22.00;95.60;;;;;;5024926;28;20030;-42
2023/06/27 08:45:57;;;;;;;4.32;0.98;;;22.10;95.50;;;;;;5023747;28;20471;-43
2023/06/27 08:48:25;;;;;;;2.55;1.10;;;22.20;94.80;;;;;;5004353;28;20121;-43
2023/06/27 08:50:53;;;;;;;2.15;1.60;;;22.30;94.80;;;;;;5020828;28;20017;-43
2023/06/27 08:53:21;;;;;;;1.70;1.02;;;22.30;94.50;;;;;;5023858;28;20032;-43
2023/06/27 08:56:09;;;;;;;3.60;1.10;;;22.40;93.80;;;;;;5023677;28;20144;-43
2023/06/27 08:58:44;;;;;;;2.67;1.20;;;22.40;93.80;;;;;;5025631;28;20029;-43
2023/06/27 09:01:11;;;;;;;2.60;1.00;;;22.40;93.20;;;;;;5022687;28;20118;-43
2023/06/27 09:03:37;;;;;;;3.17;1.17;;;22.30;93.20;;;;;;5022092;28;20034;-43
2023/06/27 09:06:11;;;;;;;2.78;1.35;;;22.30;92.60;;;;;;5021143;28;20025;-43
2023/06/27 09:08:37;;;;;;;2.50;1.10;;;22.20;92.30;;;;;;5025182;28;20041;-43
2023/06/27 09:11:08;;;;;;;2.35;1.13;;;22.10;92.40;;;;;;5023661;28;20021;-43
2023/06/27 09:13:34;;;;;;;2.70;1.00;;;22.00;92.20;;;;;;5024376;28;20037;-43
2023/06/27 09:16:00;;;;;;;2.17;1.00;;;21.90;91.70;;;;;;5024267;28;20657;-43
2023/06/27 09:18:25;;;;;;;2.17;0.80;;;21.80;91.80;;;;;;5023582;28;20072;-43
2023/06/27 09:20:57;;;;;;;3.42;1.13;;;21.70;91.10;;;;;;5023612;28;20104;-43
2023/06/27 09:23:25;;;;;;;3.78;1.38;;;21.70;91.30;;;;;;5023883;28;20037;-43
2023/06/27 09:26:13;;;;;;;2.72;1.17;;;21.70;91.30;;;;;;5022742;28;20108;-43
2023/06/27 09:28:50;;;;;;;2.60;1.05;;;21.70;91.20;;;;;;5013998;28;20098;-43
2023/06/27 09:31:24;;;;;;;2.17;1.13;;;21.70;91.40;;;;;;5024384;28;20041;-42
2023/06/27 09:33:50;;;;;;;2.58;1.20;;;21.80;91.60;;;;;;5024092;28;20445;-42
2023/06/27 09:36:38;;;;;;;2.60;1.20;;;21.90;91.60;;;;;;5024130;28;20037;-42
2023/06/27 09:39:14;;;;;;;3.88;1.27;;;22.00;91.60;;;;;;5020600;28;20030;-43
2023/06/27 09:41:47;;;;;;;3.63;1.30;;;22.10;91.50;;;;;;5021887;28;20033;-42
2023/06/27 09:44:20;;;;;;;3.30;1.00;;;22.30;91.10;;;;;;5024196;28;20629;-42
2023/06/27 09:46:47;;;;;;;3.20;1.13;;;22.40;89.50;;;;;;5023739;28;20039;-42
2023/06/27 09:49:17;;;;;;;2.13;1.00;;;22.40;88.70;;;;;;5022029;28;20469;-42
2023/06/27 09:51:49;;;;;;;2.70;0.93;;;22.40;89.10;;;;;;5023796;28;20431;-42
2023/06/27 09:54:20;;;;;;;1.92;0.90;;;22.40;89.60;;;;;;5011680;28;20121;-42
2023/06/27 09:56:51;;;;;;;1.33;0.82;;;22.40;89.20;;;;;;5022700;28;20556;-42
2023/06/27 09:59:19;;;;;;;3.25;1.23;;;22.40;89.20;;;;;;5022393;28;20074;-42
2023/06/27 10:01:44;;;;;;;1.33;1.05;;;22.60;88.70;;;;;;5022705;28;20040;-43
2023/06/27 10:04:10;;;;;;;1.15;0.90;;;22.70;88.00;;;;;;5022162;28;20415;-42
2023/06/27 10:06:37;;;;;;;2.33;1.05;;;22.80;87.90;;;;;;5022946;28;20048;-43
2023/06/27 10:09:03;;;;;;;3.47;0.90;;;23.00;86.90;;;;;;5022569;28;20041;-42
2023/06/27 10:11:29;;;;;;;2.45;0.90;;;23.00;86.70;;;;;;5021047;28;20099;-42
2023/06/27 10:13:59;;;;;;;2.25;0.85;;;23.10;86.40;;;;;;5022685;28;20029;-43
2023/06/27 10:16:25;;;;;;;2.85;1.10;;;23.10;85.40;;;;;;5022581;28;20029;-42
2023/06/27 10:18:52;;;;;;;4.13;1.23;;;23.10;85.80;;;;;;5023582;28;20055;-42
2023/06/27 10:21:18;;;;;;;1.90;1.10;;;23.20;86.40;;;;;;5021799;28;20541;-41
2023/06/27 10:23:50;;;;;;;3.47;1.00;;;23.30;86.60;;;;;;5022884;28;20033;-41
2023/06/27 10:26:20;;;;;;;2.25;1.13;;;23.40;84.40;;;;;;5023754;28;20045;-42
2023/06/27 10:28:52;;;;;;;3.35;1.00;;;23.40;81.30;;;;;;5022195;28;20084;-42
2023/06/27 10:31:36;;;;;;;;;;;23.20;82.10;;;;;;5020230;28;20060;-42
2023/06/27 10:34:02;;;;;;;2.08;0.90;;;23.00;83.50;;;;;;5022935;28;19909;-41
2023/06/27 10:36:50;;;;;;;3.42;1.00;;;23.00;83.90;;;;;;5023745;28;20029;-42
2023/06/27 10:39:26;;;;;;;2.75;1.00;;;23.00;84.00;;;;;;5020194;28;20108;-41
2023/06/27 10:42:18;;;;;;;3.13;0.93;;;23.10;84.60;;;;;;5023710;28;20033;-41
2023/06/27 10:45:12;;;;;;;4.38;1.02;;;23.10;84.10;;;;;;5021776;28;20037;-41
2023/06/27 10:47:42;;;;;;;2.88;0.75;;;23.10;83.80;;;;;;5003823;28;20415;-41
2023/06/27 10:50:15;;;;;;;4.07;1.05;;;23.10;84.40;;;;;;5020660;28;20033;-42
2023/06/27 10:52:59;;;;;;;2.63;0.82;;;23.10;83.90;;;;;;5022440;28;20159;-42
2023/06/27 10:55:29;;;;;;;2.42;0.90;;;23.00;84.20;;;;;;5027011;28;20065;-42
2023/06/27 10:58:06;;;;;;;2.22;0.70;;;23.00;84.30;;;;;;5027169;28;20024;-42
2023/06/27 11:00:33;;;;;;;1.45;0.80;;;23.00;84.90;;;;;;5024380;28;20634;-42
2023/06/27 11:03:01;;;;;;;2.13;0.70;;;23.00;83.00;;;;;;5026643;28;20056;-41
2023/06/27 11:05:38;;;;;;;1.95;0.85;;;23.00;82.30;;;;;;5025746;28;20029;-42
2023/06/27 11:08:08;;;;;;;2.80;0.95;;;23.00;82.20;;;;;;5011489;28;20033;-43
2023/06/27 11:10:34;;;;;;;3.03;0.90;;;23.00;81.00;;;;;;5023438;28;20037;-42
2023/06/27 11:13:22;;;;;;;1.88;1.00;;;23.00;81.00;;;;;;5024277;28;20052;-43
2023/06/27 11:15:49;;;;;;;2.30;0.77;;;23.10;80.10;;;;;;5025952;28;20038;-41
2023/06/27 11:18:15;;;;;;;3.15;0.82;;;23.10;80.40;;;;;;5022899;28;20080;-42
2023/06/27 11:20:42;;;;;;;1.92;0.70;;;23.20;80.00;;;;;;5025108;28;20037;-42
2023/06/27 11:23:09;;;;;;;2.78;1.00;;;23.20;79.90;;;;;;5024385;28;20045;-41
2023/06/27 11:25:36;;;;;;;2.33;0.80;;;23.20;78.70;;;;;;5026171;28;20112;-42
2023/06/27 11:28:02;;;;;;;3.38;1.27;;;23.10;78.10;;;;;;5026523;28;20043;-42
2023/06/27 11:30:30;;;;;;;1.85;0.80;;;23.00;78.20;;;;;;5025546;28;20384;-42
2023/06/27 11:32:56;;;;;;;3.97;0.88;;;23.10;79.00;;;;;;5024765;28;20033;-42
2023/06/27 11:35:23;;;;;;;2.25;0.85;;;23.20;79.40;;;;;;5025482;28;20030;-42
2023/06/27 11:37:55;;;;;;;1.90;1.05;;;23.20;79.00;;;;;;5026397;28;20029;-42
2023/06/27 11:40:24;;;;;;;2.80;1.00;;;23.20;78.60;;;;;;5026070;28;20128;-41
2023/06/27 11:42:53;;;;;;;2.35;0.90;;;23.20;76.60;;;;;;5025980;28;20042;-41
2023/06/27 11:45:18;;;;;;;1.92;0.68;;;23.20;77.60;;;;;;5026762;28;20131;-41
2023/06/27 11:47:45;;;;;;;2.63;0.90;;;23.30;78.70;;;;;;5026378;28;20465;-41
2023/06/27 11:50:12;;;;;;;3.05;0.70;;;23.40;78.30;;;;;;5026595;28;20082;-41
2023/06/27 11:52:41;;;;;;;2.50;0.90;;;23.40;78.60;;;;;;5026161;28;20041;-42
2023/06/27 11:55:10;;;;;;;2.10;1.25;;;23.50;78.00;;;;;;5026136;28;20477;-43
2023/06/27 11:57:48;;;;;;;2.17;0.90;;;23.50;75.60;;;;;;5006383;28;20041;-43
2023/06/27 12:00:22;;;;;;;3.83;0.95;;;23.40;77.20;;;;;;5006834;28;20028;-43
2023/06/27 12:02:53;;;;;;;1.98;0.80;;;23.50;78.20;;;;;;5005881;28;20425;-43
2023/06/27 12:05:21;;;;;;;1.35;1.00;;;23.60;79.20;;;;;;5003959;28;20038;-43
2023/06/27 12:08:07;;;;;;;1.35;0.68;;;23.70;78.80;;;;;;5005230;28;20030;-42
2023/06/27 12:10:51;;;;;;;3.00;0.85;;;23.70;78.70;;;;;;4989084;28;20438;-43
2023/06/27 12:13:16;;;;;;;1.42;0.88;;;23.80;78.60;;;;;;5002728;28;20026;-42
2023/06/27 12:15:44;;;;;;;3.13;0.75;;;23.80;78.30;;;;;;5005234;28;20719;-42
2023/06/27 12:18:23;;;;;;;3.13;0.82;;;23.80;78.80;;;;;;5005491;28;20025;-42
2023/06/27 12:20:53;;;;;;;2.80;0.88;;;23.80;77.40;;;;;;5005598;28;20033;-45
2023/06/27 12:23:21;;;;;;;2.17;0.88;;;23.80;78.10;;;;;;5003997;28;20029;-42
2023/06/27 12:25:50;;;;;;;2.35;0.90;;;23.90;78.70;;;;;;5005283;28;20034;-42
2023/06/27 12:28:16;;;;;;;3.08;1.10;;;23.90;77.80;;;;;;5005015;28;20033;-42
2023/06/27 12:30:41;;;;;;;2.30;1.30;;;23.90;77.20;;;;;;5005238;28;20026;-42
2023/06/27 12:33:08;;;;;;;3.13;1.15;;;23.90;77.50;;;;;;5004318;28;20037;-41
2023/06/27 12:35:34;;;;;;;1.92;0.90;;;24.00;77.40;;;;;;5004215;28;20056;-42
2023/06/27 12:38:00;;;;;;;2.00;1.02;;;24.10;77.50;;;;;;5005394;28;20022;-42
2023/06/27 12:40:26;;;;;;;2.95;1.13;;;24.30;77.50;;;;;;5006113;28;20037;-42
2023/06/27 12:42:54;;;;;;;2.08;0.90;;;24.40;76.20;;;;;;5005576;28;20032;-42
2023/06/27 12:45:21;;;;;;;2.10;0.75;;;24.30;75.30;;;;;;5004058;28;20030;-42
2023/06/27 12:47:56;;;;;;;2.53;1.10;;;24.30;75.80;;;;;;5005480;28;20130;-42
2023/06/27 12:50:45;;;;;;;2.00;0.80;;;24.20;76.30;;;;;;5005776;28;20029;-42
2023/06/27 12:53:10;;;;;;;2.15;1.05;;;24.30;77.20;;;;;;4997770;28;20041;-42